createdAt,value
2024-04-09T00:00:07.986Z,1.70
2024-04-09T00:00:17.986Z,1.70
2024-04-09T00:00:28.018Z,2.00
2024-04-09T00:00:38.082Z,2.00
2024-04-09T00:00:47.951Z,2.00
2024-04-09T00:00:57.987Z,1.70
2024-04-09T00:01:08.001Z,1.80
2024-04-09T00:01:18.057Z,2.00
2024-04-09T00:01:38.083Z,2.00
2024-04-09T00:01:47.950Z,1.80
2024-04-09T00:01:57.946Z,2.00
2024-04-09T00:02:07.952Z,2.00
2024-04-09T00:02:17.938Z,2.00
2024-04-09T00:02:28.004Z,1.90
2024-04-09T00:02:48.015Z,1.80
2024-04-09T00:02:58.046Z,1.90
2024-04-09T00:03:08.688Z,1.80
2024-04-09T00:03:18.218Z,2.40
2024-04-09T00:03:28.318Z,2.30
2024-04-09T00:03:38.164Z,2.50
2024-04-09T00:03:58.380Z,2.20
2024-04-09T00:04:07.982Z,2.20
2024-04-09T00:04:18.150Z,2.10
2024-04-09T00:04:28.049Z,2.10
2024-04-09T00:04:38.080Z,2.50
2024-04-09T00:04:47.981Z,2.50
2024-04-09T00:04:58.027Z,2.60
2024-04-09T00:05:18.023Z,2.80
2024-04-09T00:05:27.933Z,2.80
2024-04-09T00:05:38.026Z,2.50
2024-04-09T00:05:47.946Z,1.80
2024-04-09T00:05:58.045Z,1.60
2024-04-09T00:06:07.962Z,1.70
2024-04-09T00:06:28.000Z,2.30
2024-04-09T00:06:38.250Z,2.30
2024-04-09T00:06:47.937Z,2.20
2024-04-09T00:06:57.948Z,2.20
2024-04-09T00:07:08.006Z,2.10
2024-04-09T00:07:17.965Z,1.90
2024-04-09T00:07:37.917Z,2.00
2024-04-09T00:07:47.953Z,2.30
2024-04-09T00:07:57.909Z,2.20
2024-04-09T00:08:07.926Z,1.90
2024-04-09T00:08:18.239Z,1.80
2024-04-09T00:08:27.924Z,2.60
2024-04-09T00:08:37.931Z,2.90
2024-04-09T00:08:57.978Z,2.00
2024-04-09T00:09:07.997Z,1.60
2024-04-09T00:09:18.094Z,1.90
2024-04-09T00:09:27.985Z,2.30
2024-04-09T00:09:38.010Z,2.20
2024-04-09T00:09:47.941Z,2.10
2024-04-09T00:09:57.948Z,1.80
2024-04-09T00:10:17.899Z,2.40
2024-04-09T00:10:27.932Z,2.20
2024-04-09T00:10:37.958Z,2.20
2024-04-09T00:10:47.980Z,1.90
2024-04-09T00:10:57.900Z,2.10
2024-04-09T00:11:07.967Z,2.00
2024-04-09T00:11:17.979Z,2.00
2024-04-09T00:11:28.085Z,1.90
2024-04-09T00:11:47.990Z,1.90
2024-04-09T00:11:58.228Z,2.00
2024-04-09T00:12:08.037Z,1.90
2024-04-09T00:12:17.906Z,1.80
2024-04-09T00:12:27.977Z,1.90
2024-04-09T00:12:38.062Z,2.30
2024-04-09T00:12:57.942Z,2.20
2024-04-09T00:13:07.930Z,2.00
2024-04-09T00:13:17.887Z,1.80
2024-04-09T00:13:27.917Z,1.60
2024-04-09T00:13:37.905Z,1.80
2024-04-09T00:13:47.902Z,1.90
2024-04-09T00:14:07.888Z,2.20
2024-04-09T00:14:17.918Z,2.10
2024-04-09T00:14:27.882Z,1.80
2024-04-09T00:14:37.941Z,1.60
2024-04-09T00:14:47.899Z,1.70
2024-04-09T00:14:57.931Z,1.80
2024-04-09T00:15:08.040Z,2.00
2024-04-09T00:15:27.980Z,2.00
2024-04-09T00:15:38.142Z,1.70
2024-04-09T00:15:47.896Z,2.20
2024-04-09T00:15:58.038Z,2.30
2024-04-09T00:16:07.892Z,2.50
2024-04-09T00:16:17.905Z,1.90
2024-04-09T00:16:37.876Z,1.80
2024-04-09T00:16:47.925Z,1.90
2024-04-09T00:16:57.936Z,1.90
2024-04-09T00:17:07.910Z,1.90
2024-04-09T00:17:17.952Z,1.70
2024-04-09T00:17:27.966Z,1.70
2024-04-09T00:17:37.998Z,1.70
2024-04-09T00:17:58.058Z,2.60
2024-04-09T00:18:08.062Z,3.10
2024-04-09T00:18:18.004Z,2.70
2024-04-09T00:18:28.185Z,2.40
2024-04-09T00:18:38.106Z,2.20
2024-04-09T00:18:48.032Z,2.10
2024-04-09T00:19:08.018Z,1.70
2024-04-09T00:19:17.890Z,1.70
2024-04-09T00:19:27.950Z,2.40
2024-04-09T00:19:38.003Z,2.40
2024-04-09T00:19:47.857Z,2.60
2024-04-09T00:19:57.864Z,2.10
2024-04-09T00:20:17.848Z,2.00
2024-04-09T00:20:27.875Z,1.80
2024-04-09T00:20:37.870Z,1.80
2024-04-09T00:20:47.928Z,1.80
2024-04-09T00:20:57.988Z,1.80
2024-04-09T00:21:08.003Z,1.70
2024-04-09T00:21:17.922Z,1.70
2024-04-09T00:21:28.521Z,1.70
2024-04-09T00:21:37.945Z,1.70
2024-04-09T00:21:57.892Z,1.70
2024-04-09T00:22:07.851Z,2.00
2024-04-09T00:22:17.858Z,2.20
2024-04-09T00:22:27.867Z,2.40
2024-04-09T00:22:37.890Z,2.30
2024-04-09T00:22:47.887Z,2.30
2024-04-09T00:23:07.846Z,2.00
2024-04-09T00:23:18.271Z,1.90
2024-04-09T00:23:30.448Z,2.00
2024-04-09T00:23:37.894Z,1.90
2024-04-09T00:23:47.852Z,1.70
2024-04-09T00:23:57.992Z,1.70
2024-04-09T00:24:07.853Z,1.70
2024-04-09T00:24:27.896Z,1.90
2024-04-09T00:24:38.004Z,2.30
2024-04-09T00:24:47.852Z,2.20
2024-04-09T00:24:57.845Z,2.10
2024-04-09T00:25:07.837Z,1.70
2024-04-09T00:25:17.859Z,1.70
2024-04-09T00:25:37.985Z,1.90
2024-04-09T00:25:47.880Z,2.00
2024-04-09T00:25:57.847Z,1.70
2024-04-09T00:26:07.843Z,1.60
2024-04-09T00:26:17.889Z,1.60
2024-04-09T00:26:27.825Z,1.90
2024-04-09T00:26:37.863Z,2.00
2024-04-09T00:26:57.860Z,2.10
2024-04-09T00:27:07.926Z,1.90
2024-04-09T00:27:17.910Z,2.00
2024-04-09T00:27:27.904Z,1.80
2024-04-09T00:27:40.737Z,1.60
2024-04-09T00:27:47.949Z,1.70
2024-04-09T00:28:07.859Z,1.80
2024-04-09T00:28:17.826Z,1.50
2024-04-09T00:28:27.832Z,1.70
2024-04-09T00:28:37.861Z,1.70
2024-04-09T00:28:47.839Z,1.70
2024-04-09T00:28:58.449Z,1.60
2024-04-09T00:29:17.820Z,1.60
2024-04-09T00:29:27.832Z,1.90
2024-04-09T00:29:37.854Z,2.20
2024-04-09T00:29:48.455Z,2.70
2024-04-09T00:29:57.875Z,2.60
2024-04-09T00:30:07.923Z,2.40
2024-04-09T00:30:27.936Z,1.70
2024-04-09T00:30:37.965Z,2.00
2024-04-09T00:30:47.841Z,1.80
2024-04-09T00:30:57.839Z,2.00
2024-04-09T00:31:07.835Z,1.60
2024-04-09T00:31:17.842Z,1.80
2024-04-09T00:31:27.877Z,1.70
2024-04-09T00:31:37.857Z,1.70
2024-04-09T00:31:47.904Z,1.70
2024-04-09T00:31:57.891Z,2.30
2024-04-09T00:32:17.812Z,2.80
2024-04-09T00:32:27.869Z,2.40
2024-04-09T00:32:37.989Z,2.20
2024-04-09T00:32:47.913Z,2.00
2024-04-09T00:32:57.976Z,2.00
2024-04-09T00:33:07.922Z,1.60
2024-04-09T00:33:18.093Z,1.90
2024-04-09T00:33:37.942Z,2.10
2024-04-09T00:33:47.978Z,2.00
2024-04-09T00:33:58.086Z,1.80
2024-04-09T00:34:07.957Z,1.70
2024-04-09T00:34:17.908Z,1.80
2024-04-09T00:34:28.012Z,1.80
2024-04-09T00:34:48.130Z,2.10
2024-04-09T00:34:57.814Z,2.20
2024-04-09T00:35:07.816Z,1.80
2024-04-09T00:35:17.831Z,1.80
2024-04-09T00:35:27.802Z,1.60
2024-04-09T00:35:37.890Z,1.90
2024-04-09T00:35:47.834Z,1.90
2024-04-09T00:35:58.037Z,2.00
2024-04-09T00:36:17.912Z,1.80
2024-04-09T00:36:27.831Z,1.90
2024-04-09T00:36:37.959Z,1.80
2024-04-09T00:36:47.802Z,1.70
2024-04-09T00:36:57.807Z,1.80
2024-04-09T00:37:07.811Z,2.00
2024-04-09T00:37:27.821Z,1.70
2024-04-09T00:37:37.827Z,1.50
2024-04-09T00:37:48.479Z,1.50
2024-04-09T00:37:57.808Z,1.60
2024-04-09T00:38:08.199Z,1.50
2024-04-09T00:38:17.777Z,1.60
2024-04-09T00:38:27.804Z,1.80
2024-04-09T00:38:37.823Z,2.10
2024-04-09T00:38:57.928Z,1.90
2024-04-09T00:39:07.822Z,1.90
2024-04-09T00:39:17.867Z,2.30
2024-04-09T00:39:27.822Z,2.10
2024-04-09T00:39:37.843Z,2.00
2024-04-09T00:39:47.894Z,1.60
2024-04-09T00:39:57.804Z,1.70
2024-04-09T00:40:07.805Z,1.60
2024-04-09T00:40:27.789Z,1.60
2024-04-09T00:40:37.758Z,1.70
2024-04-09T00:40:47.787Z,1.80
2024-04-09T00:40:57.819Z,1.90
2024-04-09T00:41:07.798Z,1.80
2024-04-09T00:41:17.774Z,1.80
2024-04-09T00:41:27.822Z,1.80
2024-04-09T00:41:47.848Z,1.70
2024-04-09T00:41:58.625Z,1.70
2024-04-09T00:42:07.891Z,1.90
2024-04-09T00:42:17.878Z,1.90
2024-04-09T00:42:27.805Z,2.00
2024-04-09T00:42:37.785Z,1.60
2024-04-09T00:42:57.818Z,1.40
2024-04-09T00:43:08.583Z,1.80
2024-04-09T00:43:17.791Z,1.80
2024-04-09T00:43:27.769Z,2.00
2024-04-09T00:43:37.787Z,2.00
2024-04-09T00:43:47.797Z,2.00
2024-04-09T00:44:08.488Z,1.70
2024-04-09T00:44:17.910Z,1.70
2024-04-09T00:44:27.948Z,1.70
2024-04-09T00:44:37.787Z,1.90
2024-04-09T00:44:47.768Z,1.90
2024-04-09T00:44:57.775Z,1.90
2024-04-09T00:45:17.778Z,1.80
2024-04-09T00:45:27.835Z,1.70
2024-04-09T00:45:38.045Z,1.70
2024-04-09T00:45:47.795Z,1.90
2024-04-09T00:45:57.756Z,1.90
2024-04-09T00:46:07.764Z,2.10
2024-04-09T00:46:17.783Z,1.70
2024-04-09T00:46:37.803Z,1.70
2024-04-09T00:46:48.745Z,1.80
2024-04-09T00:46:57.850Z,1.70
2024-04-09T00:47:07.924Z,1.50
2024-04-09T00:47:17.879Z,1.60
2024-04-09T00:47:27.859Z,2.00
2024-04-09T00:47:37.916Z,2.30
2024-04-09T00:47:57.895Z,1.70
2024-04-09T00:48:08.006Z,1.70
2024-04-09T00:48:18.030Z,2.00
2024-04-09T00:48:27.999Z,1.70
2024-04-09T00:48:37.897Z,1.40
2024-04-09T00:48:47.804Z,1.10
2024-04-09T00:48:58.565Z,1.30
2024-04-09T00:49:17.807Z,1.80
2024-04-09T00:49:27.795Z,1.80
2024-04-09T00:49:38.548Z,1.60
2024-04-09T00:49:47.769Z,1.70
2024-04-09T00:49:57.747Z,1.60
2024-04-09T00:50:07.743Z,1.50
2024-04-09T00:50:17.820Z,1.40
2024-04-09T00:50:27.732Z,1.60
2024-04-09T00:50:47.896Z,1.70
2024-04-09T00:50:58.587Z,1.70
2024-04-09T00:51:07.802Z,2.00
2024-04-09T00:51:17.777Z,2.40
2024-04-09T00:51:27.802Z,2.30
2024-04-09T00:51:37.789Z,2.00
2024-04-09T00:51:47.791Z,1.80
2024-04-09T00:52:07.800Z,1.80
2024-04-09T00:52:17.844Z,2.00
2024-04-09T00:52:27.793Z,2.00
2024-04-09T00:52:37.729Z,1.90
2024-04-09T00:52:47.763Z,1.70
2024-04-09T00:52:57.724Z,1.60
2024-04-09T00:53:17.812Z,1.70
2024-04-09T00:53:27.726Z,2.10
2024-04-09T00:53:37.869Z,1.80
2024-04-09T00:53:47.751Z,1.80
2024-04-09T00:53:57.721Z,1.70
2024-04-09T00:54:07.770Z,2.00
2024-04-09T00:54:17.801Z,2.00
2024-04-09T00:54:27.747Z,1.80
2024-04-09T00:54:47.782Z,1.90
2024-04-09T00:54:57.712Z,2.00
2024-04-09T00:55:07.736Z,1.70
2024-04-09T00:55:17.762Z,1.80
2024-04-09T00:55:27.718Z,1.70
2024-04-09T00:55:37.744Z,1.60
2024-04-09T00:55:58.478Z,1.60
2024-04-09T00:56:07.726Z,1.60
2024-04-09T00:56:17.775Z,1.50
2024-04-09T00:56:27.733Z,1.60
2024-04-09T00:56:37.750Z,1.50
2024-04-09T00:56:47.720Z,1.60
2024-04-09T00:57:08.076Z,2.20
2024-04-09T00:57:18.151Z,2.40
2024-04-09T00:57:27.843Z,2.10
2024-04-09T00:57:37.756Z,2.00
2024-04-09T00:57:47.713Z,1.80
2024-04-09T00:57:57.785Z,1.70
2024-04-09T00:58:17.705Z,1.80
2024-04-09T00:58:27.709Z,2.10
2024-04-09T00:58:37.718Z,2.50
2024-04-09T00:58:47.693Z,2.80
2024-04-09T00:58:57.714Z,2.50
2024-04-09T00:59:07.704Z,1.90
2024-04-09T00:59:27.691Z,1.80
2024-04-09T00:59:37.686Z,1.90
2024-04-09T00:59:47.703Z,1.60
2024-04-09T00:59:57.780Z,1.70
2024-04-09T01:00:07.768Z,1.50
2024-04-09T01:00:17.842Z,1.50
2024-04-09T01:00:27.732Z,1.30
2024-04-09T01:00:37.804Z,1.20
2024-04-09T01:00:48.058Z,1.20
2024-04-09T01:00:57.799Z,1.10
2024-04-09T01:01:18.019Z,1.40
2024-04-09T01:01:27.826Z,1.60
2024-04-09T01:01:37.679Z,2.50
2024-04-09T01:01:47.795Z,2.30
2024-04-09T01:01:57.690Z,2.40
2024-04-09T01:02:07.754Z,1.50
2024-04-09T01:02:17.875Z,1.40
2024-04-09T01:02:28.077Z,1.30
2024-04-09T01:02:47.783Z,1.70
2024-04-09T01:02:57.837Z,1.70
2024-04-09T01:03:08.065Z,1.60
2024-04-09T01:03:17.968Z,1.80
2024-04-09T01:03:28.206Z,1.70
2024-04-09T01:03:37.873Z,1.50
2024-04-09T01:03:57.800Z,1.60
2024-04-09T01:04:07.776Z,1.80
2024-04-09T01:04:17.815Z,1.50
2024-04-09T01:04:27.941Z,1.60
2024-04-09T01:04:37.792Z,1.70
2024-04-09T01:04:47.726Z,1.80
2024-04-09T01:05:07.687Z,1.70
2024-04-09T01:05:17.747Z,1.50
2024-04-09T01:05:27.686Z,1.50
2024-04-09T01:05:37.666Z,1.40
2024-04-09T01:05:47.704Z,1.50
2024-04-09T01:05:57.702Z,1.30
2024-04-09T01:06:07.750Z,1.40
2024-04-09T01:06:27.767Z,1.80
2024-04-09T01:06:37.774Z,1.90
2024-04-09T01:06:47.680Z,1.90
2024-04-09T01:06:57.689Z,1.70
2024-04-09T01:07:07.701Z,1.90
2024-04-09T01:07:17.711Z,1.90
2024-04-09T01:07:37.733Z,1.70
2024-04-09T01:07:47.662Z,1.90
2024-04-09T01:07:57.725Z,2.10
2024-04-09T01:08:07.734Z,2.30
2024-04-09T01:08:17.667Z,2.20
2024-04-09T01:08:27.697Z,2.10
2024-04-09T01:08:47.792Z,1.80
2024-04-09T01:08:57.790Z,1.70
2024-04-09T01:09:07.702Z,1.60
2024-04-09T01:09:17.765Z,1.60
2024-04-09T01:09:27.706Z,1.40
2024-04-09T01:09:37.733Z,1.40
2024-04-09T01:09:57.656Z,1.60
2024-04-09T01:10:07.648Z,1.60
2024-04-09T01:10:17.659Z,1.80
2024-04-09T01:10:27.668Z,2.00
2024-04-09T01:10:38.545Z,2.00
2024-04-09T01:10:47.707Z,2.20
2024-04-09T01:10:57.737Z,1.90
2024-04-09T01:11:17.700Z,1.70
2024-04-09T01:11:27.830Z,1.80
2024-04-09T01:11:37.676Z,1.40
2024-04-09T01:11:47.689Z,1.70
2024-04-09T01:11:57.732Z,1.70
2024-04-09T01:12:07.868Z,1.60
2024-04-09T01:12:17.687Z,1.80
2024-04-09T01:12:27.787Z,1.60
2024-04-09T01:12:37.730Z,1.80
2024-04-09T01:12:47.711Z,1.50
2024-04-09T01:13:07.639Z,1.50
2024-04-09T01:13:17.671Z,1.40
2024-04-09T01:13:27.658Z,1.60
2024-04-09T01:13:37.746Z,1.80
2024-04-09T01:13:47.648Z,2.00
2024-04-09T01:13:57.813Z,1.90
2024-04-09T01:14:07.661Z,1.80
2024-04-09T01:14:29.396Z,1.70
2024-04-09T01:14:37.651Z,1.60
2024-04-09T01:14:47.680Z,1.80
2024-04-09T01:14:57.681Z,2.10
2024-04-09T01:15:07.655Z,2.00
2024-04-09T01:15:17.709Z,2.10
2024-04-09T01:15:27.690Z,1.60
2024-04-09T01:15:37.889Z,1.70
2024-04-09T01:15:57.630Z,1.80
2024-04-09T01:16:07.629Z,1.70
2024-04-09T01:16:17.676Z,1.80
2024-04-09T01:16:27.655Z,1.70
2024-04-09T01:16:37.650Z,1.70
2024-04-09T01:16:47.708Z,1.20
2024-04-09T01:16:57.704Z,1.50
2024-04-09T01:17:08.800Z,1.70
2024-04-09T01:17:17.772Z,1.90
2024-04-09T01:17:37.699Z,1.30
2024-04-09T01:17:47.751Z,1.20
2024-04-09T01:17:57.854Z,1.50
2024-04-09T01:18:07.716Z,1.50
2024-04-09T01:18:17.792Z,1.60
2024-04-09T01:18:27.697Z,1.40
2024-04-09T01:18:47.695Z,1.40
2024-04-09T01:18:57.755Z,1.50
2024-04-09T01:19:07.863Z,1.70
2024-04-09T01:19:17.618Z,1.50
2024-04-09T01:19:27.775Z,1.70
2024-04-09T01:19:38.691Z,1.60
2024-04-09T01:19:47.662Z,1.60
2024-04-09T01:19:57.671Z,1.60
2024-04-09T01:20:17.641Z,1.60
2024-04-09T01:20:27.690Z,1.40
2024-04-09T01:20:37.635Z,1.70
2024-04-09T01:20:47.708Z,1.60
2024-04-09T01:20:57.685Z,1.60
2024-04-09T01:21:07.684Z,1.60
2024-04-09T01:21:17.714Z,3.00
2024-04-09T01:21:37.706Z,2.90
2024-04-09T01:21:47.600Z,1.90
2024-04-09T01:21:57.688Z,2.10
2024-04-09T01:22:07.622Z,2.10
2024-04-09T01:22:18.505Z,1.60
2024-04-09T01:22:27.638Z,1.60
2024-04-09T01:22:47.658Z,1.50
2024-04-09T01:22:57.591Z,1.20
2024-04-09T01:23:07.653Z,1.10
2024-04-09T01:23:17.615Z,1.10
2024-04-09T01:23:27.623Z,1.30
2024-04-09T01:23:37.672Z,1.70
2024-04-09T01:23:57.639Z,2.30
2024-04-09T01:24:07.632Z,2.20
2024-04-09T01:24:17.659Z,2.00
2024-04-09T01:24:27.663Z,1.50
2024-04-09T01:24:37.651Z,1.40
2024-04-09T01:24:47.629Z,1.70
2024-04-09T01:24:57.611Z,1.70
2024-04-09T01:25:07.613Z,1.80
2024-04-09T01:25:17.649Z,1.60
2024-04-09T01:25:37.614Z,2.10
2024-04-09T01:25:47.623Z,1.90
2024-04-09T01:25:58.493Z,1.90
2024-04-09T01:26:07.596Z,1.70
2024-04-09T01:26:17.630Z,1.70
2024-04-09T01:26:27.577Z,1.40
2024-04-09T01:26:37.631Z,1.50
2024-04-09T01:26:47.643Z,1.60
2024-04-09T01:27:07.637Z,2.00
2024-04-09T01:27:17.728Z,1.80
2024-04-09T01:27:27.622Z,1.70
2024-04-09T01:27:37.607Z,1.40
2024-04-09T01:27:47.630Z,1.30
2024-04-09T01:27:57.611Z,1.50
2024-04-09T01:28:07.630Z,1.70
2024-04-09T01:28:17.815Z,1.70
2024-04-09T01:28:27.606Z,1.50
2024-04-09T01:28:37.700Z,1.40
2024-04-09T01:28:57.586Z,1.70
2024-04-09T01:29:07.579Z,1.70
2024-04-09T01:29:17.597Z,1.30
2024-04-09T01:29:28.514Z,1.40
2024-04-09T01:29:37.615Z,1.80
2024-04-09T01:29:47.561Z,1.70
2024-04-09T01:29:57.616Z,2.00
2024-04-09T01:30:07.722Z,1.80
2024-04-09T01:30:17.652Z,2.00
2024-04-09T01:30:37.717Z,1.70
2024-04-09T01:30:47.607Z,1.70
2024-04-09T01:30:57.560Z,1.70
2024-04-09T01:31:07.686Z,1.40
2024-04-09T01:31:17.571Z,1.20
2024-04-09T01:31:27.573Z,1.50
2024-04-09T01:31:47.591Z,1.80
2024-04-09T01:31:57.568Z,1.30
2024-04-09T01:32:07.566Z,1.40
2024-04-09T01:32:17.665Z,1.60
2024-04-09T01:32:27.649Z,1.70
2024-04-09T01:32:37.610Z,1.50
2024-04-09T01:32:47.880Z,1.60
2024-04-09T01:32:57.724Z,1.80
2024-04-09T01:33:17.805Z,1.70
2024-04-09T01:33:27.716Z,1.50
2024-04-09T01:33:38.558Z,1.60
2024-04-09T01:33:47.670Z,1.80
2024-04-09T01:33:57.712Z,1.80
2024-04-09T01:34:07.769Z,1.70
2024-04-09T01:34:27.664Z,2.20
2024-04-09T01:34:37.583Z,2.20
2024-04-09T01:34:47.543Z,1.30
2024-04-09T01:34:57.576Z,1.60
2024-04-09T01:35:07.569Z,1.80
2024-04-09T01:35:17.621Z,2.10
2024-04-09T01:35:37.549Z,2.10
2024-04-09T01:35:47.578Z,1.90
2024-04-09T01:35:57.655Z,1.70
2024-04-09T01:36:07.630Z,1.50
2024-04-09T01:36:17.571Z,1.70
2024-04-09T01:36:27.578Z,2.00
2024-04-09T01:36:47.581Z,1.80
2024-04-09T01:36:57.531Z,1.80
2024-04-09T01:37:07.625Z,1.70
2024-04-09T01:37:17.687Z,1.60
2024-04-09T01:37:28.568Z,1.40
2024-04-09T01:37:38.596Z,1.40
2024-04-09T01:37:47.610Z,1.40
2024-04-09T01:37:57.636Z,1.40
2024-04-09T01:38:17.605Z,1.50
2024-04-09T01:38:27.549Z,1.50
2024-04-09T01:38:38.039Z,1.60
2024-04-09T01:38:47.522Z,1.60
2024-04-09T01:38:58.532Z,1.70
2024-04-09T01:39:07.620Z,1.40
2024-04-09T01:39:27.605Z,1.10
2024-04-09T01:39:37.564Z,1.20
2024-04-09T01:39:47.515Z,1.30
2024-04-09T01:39:57.557Z,1.40
2024-04-09T01:40:07.651Z,1.50
2024-04-09T01:40:17.630Z,1.60
2024-04-09T01:40:37.557Z,1.70
2024-04-09T01:40:47.532Z,1.80
2024-04-09T01:40:57.570Z,1.70
2024-04-09T01:41:07.564Z,1.60
2024-04-09T01:41:18.481Z,1.50
2024-04-09T01:41:27.515Z,1.60
2024-04-09T01:41:47.533Z,1.70
2024-04-09T01:41:57.637Z,1.50
2024-04-09T01:42:07.556Z,1.70
2024-04-09T01:42:17.717Z,1.40
2024-04-09T01:42:27.601Z,1.60
2024-04-09T01:42:37.601Z,1.50
2024-04-09T01:42:47.541Z,1.40
2024-04-09T01:43:07.515Z,1.20
2024-04-09T01:43:17.529Z,1.30
2024-04-09T01:43:27.525Z,1.30
2024-04-09T01:43:37.521Z,1.30
2024-04-09T01:43:47.608Z,1.50
2024-04-09T01:43:57.533Z,1.60
2024-04-09T01:44:18.542Z,1.50
2024-04-09T01:44:27.512Z,1.60
2024-04-09T01:44:37.513Z,1.60
2024-04-09T01:44:47.508Z,1.50
2024-04-09T01:44:57.532Z,1.40
2024-04-09T01:45:07.560Z,1.60
2024-04-09T01:45:27.630Z,1.70
2024-04-09T01:45:39.732Z,1.50
2024-04-09T01:45:47.760Z,1.50
2024-04-09T01:45:57.528Z,1.40
2024-04-09T01:46:07.520Z,1.50
2024-04-09T01:46:17.516Z,1.20
2024-04-09T01:46:37.565Z,1.20
2024-04-09T01:46:47.521Z,1.50
2024-04-09T01:46:57.552Z,1.80
2024-04-09T01:47:07.561Z,2.30
2024-04-09T01:47:17.596Z,2.20
2024-04-09T01:47:27.598Z,2.20
2024-04-09T01:47:47.580Z,1.50
2024-04-09T01:47:57.580Z,1.30
2024-04-09T01:48:07.593Z,1.40
2024-04-09T01:48:17.644Z,1.40
2024-04-09T01:48:27.612Z,1.40
2024-04-09T01:48:37.646Z,1.40
2024-04-09T01:48:57.600Z,1.40
2024-04-09T01:49:07.530Z,1.50
2024-04-09T01:49:17.509Z,1.40
2024-04-09T01:49:27.496Z,1.70
2024-04-09T01:49:37.506Z,1.80
2024-04-09T01:49:47.490Z,1.80
2024-04-09T01:49:58.041Z,1.50
2024-04-09T01:50:17.501Z,1.50
2024-04-09T01:50:27.513Z,1.70
2024-04-09T01:50:37.469Z,1.90
2024-04-09T01:50:47.486Z,1.90
2024-04-09T01:50:57.662Z,1.80
2024-04-09T01:51:07.512Z,1.60
2024-04-09T01:51:17.503Z,1.50
2024-04-09T01:51:27.571Z,1.60
2024-04-09T01:51:37.586Z,1.90
2024-04-09T01:51:47.497Z,2.00
2024-04-09T01:52:07.507Z,1.80
2024-04-09T01:52:17.502Z,1.50
2024-04-09T01:52:27.520Z,1.60
2024-04-09T01:52:37.464Z,1.30
2024-04-09T01:52:47.500Z,1.30
2024-04-09T01:52:57.485Z,1.60
2024-04-09T01:53:17.583Z,2.10
2024-04-09T01:53:27.470Z,1.80
2024-04-09T01:53:37.459Z,1.60
2024-04-09T01:53:47.488Z,1.60
2024-04-09T01:53:57.630Z,1.70
2024-04-09T01:54:07.584Z,1.80
2024-04-09T01:54:27.526Z,1.50
2024-04-09T01:54:37.557Z,1.30
2024-04-09T01:54:47.460Z,1.50
2024-04-09T01:54:57.452Z,1.60
2024-04-09T01:55:07.467Z,1.70
2024-04-09T01:55:17.591Z,1.40
2024-04-09T01:55:40.043Z,1.80
2024-04-09T01:55:47.512Z,1.90
2024-04-09T01:55:57.470Z,1.70
2024-04-09T01:56:07.559Z,1.70
2024-04-09T01:56:17.464Z,1.60
2024-04-09T01:56:27.473Z,1.70
2024-04-09T01:56:37.482Z,1.70
2024-04-09T01:56:58.077Z,1.50
2024-04-09T01:57:07.513Z,1.60
2024-04-09T01:57:17.612Z,1.70
2024-04-09T01:57:27.484Z,1.80
2024-04-09T01:57:38.038Z,1.50
2024-04-09T01:57:47.446Z,1.40
2024-04-09T01:58:07.495Z,1.30
2024-04-09T01:58:17.438Z,1.50
2024-04-09T01:58:27.453Z,1.80
2024-04-09T01:58:37.443Z,1.70
2024-04-09T01:58:47.472Z,1.50
2024-04-09T01:58:58.000Z,1.40
2024-04-09T01:59:17.551Z,1.60
2024-04-09T01:59:27.461Z,1.60
2024-04-09T01:59:37.441Z,1.50
2024-04-09T01:59:47.479Z,1.60
2024-04-09T01:59:57.555Z,1.60
2024-04-09T02:00:07.561Z,1.50
2024-04-09T02:00:27.554Z,1.60
2024-04-09T02:00:37.648Z,1.50
2024-04-09T02:00:47.494Z,1.80
2024-04-09T02:00:57.635Z,1.90
2024-04-09T02:01:07.600Z,2.10
2024-04-09T02:01:17.475Z,2.10
2024-04-09T02:01:27.545Z,1.90
2024-04-09T02:01:47.446Z,2.00
2024-04-09T02:01:57.454Z,2.00
2024-04-09T02:02:07.440Z,1.80
2024-04-09T02:02:17.512Z,1.80
2024-04-09T02:02:27.584Z,1.90
2024-04-09T02:02:37.512Z,1.50
2024-04-09T02:02:58.303Z,1.70
2024-04-09T02:03:07.689Z,1.90
2024-04-09T02:03:17.582Z,1.90
2024-04-09T02:03:27.590Z,1.60
2024-04-09T02:03:37.538Z,1.50
2024-04-09T02:03:48.073Z,1.50
2024-04-09T02:04:07.518Z,2.10
2024-04-09T02:04:17.595Z,2.60
2024-04-09T02:04:27.640Z,2.00
2024-04-09T02:04:37.542Z,2.20
2024-04-09T02:04:47.500Z,1.80
2024-04-09T02:04:57.443Z,1.70
2024-04-09T02:05:17.417Z,1.70
2024-04-09T02:05:27.404Z,1.70
2024-04-09T02:05:37.446Z,1.90
2024-04-09T02:05:47.403Z,1.50
2024-04-09T02:05:57.504Z,1.50
2024-04-09T02:06:07.456Z,1.50
2024-04-09T02:06:17.429Z,1.80
2024-04-09T02:06:27.479Z,2.10
2024-04-09T02:06:37.650Z,1.90
2024-04-09T02:06:47.534Z,1.80
2024-04-09T02:07:07.438Z,1.80
2024-04-09T02:07:17.427Z,1.70
2024-04-09T02:07:27.404Z,1.70
2024-04-09T02:07:37.413Z,1.40
2024-04-09T02:07:47.396Z,1.50
2024-04-09T02:07:57.426Z,1.40
2024-04-09T02:08:07.482Z,1.30
2024-04-09T02:08:17.448Z,1.40
2024-04-09T02:08:27.435Z,1.40
2024-04-09T02:08:47.423Z,1.40
2024-04-09T02:08:57.461Z,1.50
2024-04-09T02:09:07.568Z,1.70
2024-04-09T02:09:17.430Z,1.80
2024-04-09T02:09:27.444Z,1.70
2024-04-09T02:09:37.585Z,1.80
2024-04-09T02:09:57.386Z,2.00
2024-04-09T02:10:07.422Z,1.80
2024-04-09T02:10:18.023Z,1.90
2024-04-09T02:10:27.997Z,2.00
2024-04-09T02:10:37.482Z,2.00
2024-04-09T02:10:47.392Z,1.80
2024-04-09T02:11:07.396Z,1.70
2024-04-09T02:11:17.433Z,1.60
2024-04-09T02:11:27.481Z,1.80
2024-04-09T02:11:37.535Z,2.00
2024-04-09T02:11:47.447Z,2.00
2024-04-09T02:11:57.489Z,1.70
2024-04-09T02:12:17.437Z,1.60
2024-04-09T02:12:27.429Z,1.50
2024-04-09T02:12:37.459Z,1.40
2024-04-09T02:12:47.457Z,1.60
2024-04-09T02:12:57.383Z,1.50
2024-04-09T02:13:07.510Z,1.70
2024-04-09T02:13:17.376Z,1.60
2024-04-09T02:13:27.580Z,1.60
2024-04-09T02:13:37.417Z,1.50
2024-04-09T02:13:57.382Z,1.50
2024-04-09T02:14:07.407Z,1.40
2024-04-09T02:14:17.372Z,2.30
2024-04-09T02:14:29.330Z,2.20
2024-04-09T02:14:39.992Z,2.20
2024-04-09T02:14:47.557Z,1.50
2024-04-09T02:14:57.499Z,1.60
2024-04-09T02:15:07.556Z,1.40
2024-04-09T02:15:27.401Z,1.70
2024-04-09T02:15:37.435Z,1.70
2024-04-09T02:15:47.414Z,1.60
2024-04-09T02:15:57.381Z,1.50
2024-04-09T02:16:07.429Z,1.50
2024-04-09T02:16:17.460Z,1.50
2024-04-09T02:16:37.422Z,1.80
2024-04-09T02:16:47.455Z,1.60
2024-04-09T02:16:57.455Z,1.50
2024-04-09T02:17:07.379Z,1.10
2024-04-09T02:17:17.371Z,1.10
2024-04-09T02:17:27.389Z,1.10
2024-04-09T02:17:37.415Z,1.30
2024-04-09T02:17:47.494Z,1.40
2024-04-09T02:18:07.487Z,1.70
2024-04-09T02:18:17.452Z,1.60
2024-04-09T02:18:27.463Z,1.50
2024-04-09T02:18:37.457Z,1.30
2024-04-09T02:18:47.527Z,1.40
2024-04-09T02:18:57.484Z,1.30
2024-04-09T02:19:07.378Z,1.40
2024-04-09T02:19:27.384Z,1.40
2024-04-09T02:19:37.355Z,1.60
2024-04-09T02:19:47.374Z,2.10
2024-04-09T02:19:57.402Z,2.10
2024-04-09T02:20:07.366Z,2.10
2024-04-09T02:20:17.354Z,1.70
2024-04-09T02:20:27.417Z,1.80
2024-04-09T02:20:47.364Z,1.60
2024-04-09T02:20:57.410Z,1.50
2024-04-09T02:21:07.404Z,1.60
2024-04-09T02:21:17.387Z,1.40
2024-04-09T02:21:27.397Z,1.50
2024-04-09T02:21:37.473Z,1.40
2024-04-09T02:21:47.413Z,1.40
2024-04-09T02:21:57.437Z,1.30
2024-04-09T02:22:07.352Z,1.40
2024-04-09T02:22:18.043Z,1.50
2024-04-09T02:22:37.361Z,1.30
2024-04-09T02:22:48.012Z,1.30
2024-04-09T02:22:57.441Z,1.60
2024-04-09T02:23:07.420Z,1.50
2024-04-09T02:23:17.335Z,2.00
2024-04-09T02:23:27.345Z,1.90
2024-04-09T02:23:37.360Z,2.00
2024-04-09T02:23:57.362Z,1.60
2024-04-09T02:24:07.410Z,1.60
2024-04-09T02:24:17.454Z,2.40
2024-04-09T02:24:27.381Z,2.30
2024-04-09T02:24:37.529Z,2.30
2024-04-09T02:24:47.341Z,1.30
2024-04-09T02:25:07.368Z,1.50
2024-04-09T02:25:17.315Z,1.60
2024-04-09T02:25:27.326Z,2.00
2024-04-09T02:25:37.385Z,2.30
2024-04-09T02:25:47.365Z,2.30
2024-04-09T02:25:57.417Z,1.60
2024-04-09T02:26:08.004Z,1.30
2024-04-09T02:26:17.396Z,1.30
2024-04-09T02:26:27.367Z,1.70
2024-04-09T02:26:47.351Z,1.70
2024-04-09T02:26:58.040Z,1.60
2024-04-09T02:27:07.414Z,1.40
2024-04-09T02:27:17.433Z,1.40
2024-04-09T02:27:27.432Z,1.50
2024-04-09T02:27:37.423Z,1.40
2024-04-09T02:27:57.309Z,1.30
2024-04-09T02:28:07.311Z,1.60
2024-04-09T02:28:17.385Z,1.50
2024-04-09T02:28:27.332Z,1.60
2024-04-09T02:28:37.302Z,1.40
2024-04-09T02:28:47.306Z,1.40
2024-04-09T02:28:57.322Z,1.40
2024-04-09T02:29:07.346Z,1.50
2024-04-09T02:29:27.342Z,1.70
2024-04-09T02:29:37.316Z,2.00
2024-04-09T02:29:47.340Z,1.90
2024-04-09T02:29:57.333Z,2.00
2024-04-09T02:30:07.362Z,1.80
2024-04-09T02:30:17.410Z,1.80
2024-04-09T02:30:37.506Z,1.70
2024-04-09T02:30:47.363Z,1.70
2024-04-09T02:30:57.297Z,1.60
2024-04-09T02:31:08.017Z,1.40
2024-04-09T02:31:17.475Z,1.60
2024-04-09T02:31:27.343Z,1.60
2024-04-09T02:31:47.325Z,1.60
2024-04-09T02:31:58.031Z,1.60
2024-04-09T02:32:07.474Z,1.50
2024-04-09T02:32:17.333Z,1.80